Time;durP1;ratioP1;P1;durP2;ratioP2;P2;SDS_P1;SDS_P2;PMS_P1;PMS_P2;Temp;Humidity;BMP_temperature;BMP_pressure;BME280_temperature;BME280_humidity;BME280_pressure;Samples;Min_cycle;Max_cycle;Signal;HPM_P1;HPM_P2
2023/09/29 00:01:48;;;;;;;4.40;2.10;;;20.50;99.90;;;;;;6029243;22;44853;-54
2023/09/29 00:04:16;;;;;;;7.22;2.20;;;20.50;99.90;;;;;;6038781;22;45123;-54
2023/09/29 00:06:43;;;;;;;3.50;1.80;;;20.50;99.90;;;;;;6017628;22;45517;-54
2023/09/29 00:09:12;;;;;;;6.63;1.92;;;20.40;99.90;;;;;;5996921;22;45131;-54
2023/09/29 00:11:41;;;;;;;4.85;2.10;;;20.40;99.90;;;;;;6047045;22;44758;-54
2023/09/29 00:14:19;;;;;;;3.78;1.80;;;20.50;99.90;;;;;;6030379;22;44987;-54
2023/09/29 00:16:48;;;;;;;3.47;1.88;;;20.40;99.90;;;;;;6030823;22;46758;-54
2023/09/29 00:19:18;;;;;;;3.40;1.55;;;20.50;99.90;;;;;;6071661;22;44787;-54
2023/09/29 00:21:47;;;;;;;5.20;1.80;;;20.50;99.90;;;;;;6032229;22;44949;-54
2023/09/29 00:24:13;;;;;;;3.25;1.95;;;20.70;99.90;;;;;;6015607;22;45385;-54
2023/09/29 00:26:41;;;;;;;2.83;1.80;;;20.60;99.90;;;;;;6017683;22;45457;-54
2023/09/29 00:29:18;;;;;;;5.75;2.00;;;20.60;99.90;;;;;;6019895;22;44624;-54
2023/09/29 00:31:49;;;;;;;5.25;2.10;;;20.50;99.90;;;;;;6044319;22;44933;-54
2023/09/29 00:34:19;;;;;;;2.33;1.60;;;20.50;99.90;;;;;;6073392;22;44815;-54
2023/09/29 00:36:58;;;;;;;3.50;1.73;;;20.50;99.90;;;;;;6011185;22;46106;-54
2023/09/29 00:39:27;;;;;;;6.57;1.80;;;20.50;99.90;;;;;;6030553;22;44812;-54
2023/09/29 00:41:56;;;;;;;5.35;1.83;;;20.50;99.90;;;;;;6021813;22;44761;-54
2023/09/29 00:44:23;;;;;;;3.90;1.70;;;20.50;99.90;;;;;;6014157;22;44849;-54
2023/09/29 00:46:51;;;;;;;3.95;1.77;;;20.50;99.90;;;;;;5996312;22;46696;-54
2023/09/29 00:49:20;;;;;;;10.77;2.40;;;20.60;99.90;;;;;;6020687;22;44471;-54
2023/09/29 00:51:56;;;;;;;4.53;1.80;;;20.60;99.90;;;;;;6026298;22;44686;-54
2023/09/29 00:54:47;;;;;;;3.22;1.85;;;20.40;99.90;;;;;;6063759;22;45238;-54
2023/09/29 00:57:33;;;;;;;3.78;1.80;;;20.40;99.90;;;;;;6067467;22;47222;-54
2023/09/29 01:00:31;;;;;;;3.75;2.03;;;20.40;99.90;;;;;;6077510;22;44888;-54
2023/09/29 01:03:13;;;;;;;8.02;1.80;;;20.40;99.90;;;;;;6045268;22;44698;-54
2023/09/29 01:05:58;;;;;;;4.18;1.92;;;20.50;99.90;;;;;;6015664;22;44980;-54
2023/09/29 01:08:29;;;;;;;4.30;2.08;;;20.50;99.90;;;;;;6035622;22;46607;-54
2023/09/29 01:11:08;;;;;;;3.55;1.88;;;20.50;99.90;;;;;;6009640;22;44756;-54
2023/09/29 01:13:40;;;;;;;4.65;1.90;;;20.50;99.90;;;;;;6016385;22;44701;-54
2023/09/29 01:16:13;;;;;;;5.68;2.40;;;20.50;99.90;;;;;;6031403;22;45314;-54
2023/09/29 01:22:50;;;;;;;1.85;1.50;;;20.60;99.90;;;;;;5989303;22;45316;-54
2023/09/29 01:25:32;;;;;;;4.00;1.60;;;20.70;99.90;;;;;;6048467;22;44940;-54
2023/09/29 01:28:01;;;;;;;3.35;1.75;;;20.70;99.90;;;;;;6023096;22;44692;-54
2023/09/29 01:30:29;;;;;;;3.70;1.73;;;20.70;99.90;;;;;;6003453;22;45000;-54
2023/09/29 01:33:06;;;;;;;3.17;1.60;;;20.60;99.90;;;;;;6018152;22;45353;-54
2023/09/29 01:35:36;;;;;;;5.57;1.70;;;20.50;99.90;;;;;;6068717;22;44601;-54
2023/09/29 01:38:18;;;;;;;3.47;1.67;;;20.40;99.90;;;;;;6053065;22;45105;-54
2023/09/29 01:40:49;;;;;;;4.80;1.83;;;20.50;99.90;;;;;;6038859;22;45788;-54
2023/09/29 01:43:18;;;;;;;2.97;1.27;;;20.50;99.90;;;;;;6040506;22;45050;-54
2023/09/29 01:45:48;;;;;;;4.43;1.75;;;20.50;99.90;;;;;;6081720;22;45044;-54
2023/09/29 01:48:18;;;;;;;3.63;1.60;;;20.50;99.90;;;;;;6002906;22;44961;-54
2023/09/29 01:50:56;;;;;;;2.80;1.60;;;20.50;99.90;;;;;;6042618;22;46329;-54
2023/09/29 01:53:30;;;;;;;4.47;1.80;;;20.50;99.90;;;;;;6050355;22;44729;-54
2023/09/29 01:56:21;;;;;;;2.53;1.80;;;20.60;99.90;;;;;;6031711;22;45180;-54
2023/09/29 01:58:59;;;;;;;3.92;2.20;;;20.70;99.90;;;;;;6058716;22;45098;-54
2023/09/29 02:01:51;;;;;;;4.22;2.25;;;20.70;99.90;;;;;;6074363;22;48478;-54
2023/09/29 02:04:19;;;;;;;3.03;1.80;;;20.50;99.90;;;;;;6026467;22;44639;-54
2023/09/29 02:07:02;;;;;;;7.80;2.40;;;20.50;99.90;;;;;;6043947;22;44475;-54
2023/09/29 02:09:46;;;;;;;5.07;2.42;;;20.50;99.90;;;;;;5990322;22;45073;-54
2023/09/29 02:12:17;;;;;;;3.90;1.77;;;20.50;99.90;;;;;;6022345;22;46718;-54
2023/09/29 02:15:06;;;;;;;2.85;1.80;;;20.60;99.90;;;;;;6007584;22;44722;-54
2023/09/29 02:17:48;;;;;;;4.00;1.98;;;20.60;99.90;;;;;;6038538;22;44709;-54
2023/09/29 02:20:38;;;;;;;8.35;2.00;;;20.50;99.90;;;;;;6047557;22;44694;-54
2023/09/29 02:23:22;;;;;;;5.18;2.40;;;20.40;99.90;;;;;;6048140;22;47366;-54
2023/09/29 02:26:12;;;;;;;5.80;1.83;;;20.40;99.90;;;;;;6068096;22;44725;-54
2023/09/29 02:28:41;;;;;;;6.18;2.13;;;20.40;99.90;;;;;;6032557;22;44856;-54
2023/09/29 02:31:23;;;;;;;5.13;2.22;;;20.40;99.90;;;;;;6042261;22;44685;-54
2023/09/29 02:33:54;;;;;;;6.40;2.42;;;20.30;99.90;;;;;;6053326;22;45908;-54
2023/09/29 02:36:52;;;;;;;3.13;1.85;;;20.30;99.90;;;;;;6037334;22;44693;-54
2023/09/29 02:39:22;;;;;;;2.95;1.70;;;20.40;99.90;;;;;;6067242;22;44791;-54
2023/09/29 02:42:07;;;;;;;4.43;2.10;;;20.50;99.90;;;;;;6054555;22;44800;-54
2023/09/29 02:44:46;;;;;;;3.55;1.88;;;20.50;99.90;;;;;;6040709;22;45443;-54
2023/09/29 02:47:46;;;;;;;5.03;2.05;;;20.60;99.90;;;;;;6082154;22;44732;-54
2023/09/29 02:50:16;;;;;;;4.60;1.60;;;20.70;99.90;;;;;;6049530;22;44747;-54
2023/09/29 02:52:48;;;;;;;3.38;1.92;;;20.70;99.90;;;;;;6085401;22;44798;-54
2023/09/29 02:55:16;;;;;;;10.57;2.25;;;20.70;99.90;;;;;;6016645;22;45433;-54
2023/09/29 02:57:59;;;;;;;2.67;1.80;;;20.70;99.90;;;;;;6034626;22;44807;-54
2023/09/29 03:00:54;;;;;;;2.95;2.03;;;20.70;99.90;;;;;;6076391;22;45210;-54
2023/09/29 03:03:26;;;;;;;4.60;1.70;;;20.60;99.90;;;;;;6042938;22;45452;-54
2023/09/29 03:06:24;;;;;;;5.15;2.08;;;20.60;99.90;;;;;;6031069;22;44922;-54
2023/09/29 03:08:54;;;;;;;5.45;1.65;;;20.50;99.90;;;;;;6008002;22;44617;-54
2023/09/29 03:11:36;;;;;;;3.78;1.77;;;20.60;99.90;;;;;;6013292;22;44720;-54
2023/09/29 03:14:23;;;;;;;5.65;1.95;;;20.60;99.90;;;;;;6045717;22;45137;-54
2023/09/29 03:16:54;;;;;;;3.05;1.85;;;20.50;99.90;;;;;;6056318;22;45360;-54
2023/09/29 03:19:36;;;;;;;4.63;2.05;;;20.40;99.90;;;;;;6056190;22;44786;-54
2023/09/29 03:22:15;;;;;;;4.07;1.77;;;20.50;99.90;;;;;;6013522;22;45307;-54
2023/09/29 03:24:43;;;;;;;5.20;1.95;;;20.60;99.90;;;;;;6028271;22;44955;-54
2023/09/29 03:27:25;;;;;;;3.53;1.85;;;20.70;99.90;;;;;;6054802;22;46362;-54
2023/09/29 03:33:05;;;;;;;6.25;2.60;;;20.70;99.90;;;;;;6047175;22;44731;-54
2023/09/29 03:36:07;;;;;;;4.10;2.20;;;20.70;99.90;;;;;;6071724;22;44798;-54
2023/09/29 03:41:26;;;;;;;3.75;2.00;;;20.70;99.90;;;;;;6012960;22;44978;-54
2023/09/29 03:43:56;;;;;;;4.38;2.30;;;20.70;99.90;;;;;;6056072;22;44789;-54
2023/09/29 03:46:46;;;;;;;3.75;2.00;;;20.80;99.80;;;;;;6040565;22;45150;-55
2023/09/29 03:49:15;;;;;;;3.15;2.22;;;20.80;99.90;;;;;;6051577;22;46369;-55
2023/09/29 03:51:44;;;;;;;4.10;2.28;;;20.90;99.90;;;;;;6010234;22;45247;-55
2023/09/29 03:54:27;;;;;;;5.35;2.33;;;20.90;99.90;;;;;;6079920;22;44717;-55
2023/09/29 03:57:11;;;;;;;5.15;2.13;;;20.90;99.70;;;;;;6039773;22;44868;-55
2023/09/29 03:59:39;;;;;;;3.97;2.05;;;20.90;99.60;;;;;;6031412;22;47203;-55
2023/09/29 04:02:20;;;;;;;3.03;1.80;;;20.90;99.80;;;;;;6019562;22;44795;-55
2023/09/29 04:04:59;;;;;;;2.03;1.73;;;21.00;99.40;;;;;;6023453;22;44768;-55
2023/09/29 04:07:28;;;;;;;3.08;1.98;;;21.10;99.10;;;;;;6048141;22;44891;-55
2023/09/29 04:09:58;;;;;;;4.65;2.40;;;21.10;99.10;;;;;;6027384;22;45868;-55
2023/09/29 04:12:27;;;;;;;7.47;3.20;;;21.10;99.10;;;;;;6011737;22;44831;-54
2023/09/29 04:14:57;;;;;;;5.05;2.60;;;21.10;99.10;;;;;;6035056;22;44807;-55
2023/09/29 04:17:27;;;;;;;3.25;1.77;;;21.00;99.10;;;;;;6053945;22;44811;-55
2023/09/29 04:20:05;;;;;;;6.13;2.63;;;21.10;99.20;;;;;;5995776;22;46015;-55
2023/09/29 04:22:35;;;;;;;2.90;2.25;;;21.00;99.10;;;;;;6006280;22;44810;-55
2023/09/29 04:25:16;;;;;;;5.93;3.65;;;21.10;99.10;;;;;;6045151;22;44836;-55
2023/09/29 04:27:58;;;;;;;11.88;4.07;;;21.10;99.50;;;;;;6041702;22;44771;-55
2023/09/29 04:30:34;;;;;;;3.88;2.95;;;20.50;99.90;;;;;;6016599;22;46217;-55
2023/09/29 04:33:01;;;;;;;9.00;4.43;;;20.20;99.90;;;;;;6006105;22;44787;-55
2023/09/29 04:35:31;;;;;;;6.22;3.70;;;20.00;99.90;;;;;;6090133;22;44506;-55
2023/09/29 04:38:10;;;;;;;7.65;3.50;;;20.00;99.90;;;;;;6033579;22;45172;-55
2023/09/29 04:40:59;;;;;;;5.18;3.42;;;19.90;99.90;;;;;;6068790;22;46128;-55
2023/09/29 04:43:44;;;;;;;7.15;2.90;;;19.70;99.90;;;;;;6067177;22;44994;-55
2023/09/29 04:46:15;;;;;;;10.10;3.65;;;19.80;99.90;;;;;;6028632;22;45370;-55
2023/09/29 04:48:52;;;;;;;10.98;4.40;;;19.60;99.90;;;;;;6064047;22;45062;-55
2023/09/29 04:51:43;;;;;;;7.05;3.30;;;19.30;99.90;;;;;;6016554;22;46691;-55
2023/09/29 04:54:23;;;;;;;6.93;3.30;;;19.40;99.90;;;;;;6016945;22;45197;-55
2023/09/29 04:56:49;;;;;;;7.63;4.18;;;19.70;99.90;;;;;;6020548;22;44755;-55
2023/09/29 04:59:34;;;;;;;9.85;3.58;;;19.80;99.90;;;;;;6043299;22;44708;-55
2023/09/29 05:02:02;;;;;;;6.90;3.50;;;19.70;99.90;;;;;;6020627;22;46077;-55
2023/09/29 05:04:32;;;;;;;6.63;2.92;;;19.80;99.90;;;;;;6053966;22;44681;-55
2023/09/29 05:07:00;;;;;;;11.02;4.15;;;19.80;99.90;;;;;;6014713;22;44695;-55
2023/09/29 05:09:27;;;;;;;6.57;4.07;;;19.80;99.90;;;;;;6017276;22;44669;-55
2023/09/29 05:12:09;;;;;;;8.57;3.72;;;19.60;99.90;;;;;;6025887;22;45753;-55
2023/09/29 05:14:37;;;;;;;7.35;3.92;;;19.50;99.90;;;;;;6046405;22;44856;-55
2023/09/29 05:17:04;;;;;;;5.15;3.20;;;19.60;99.90;;;;;;6009599;22;44803;-55
2023/09/29 05:19:32;;;;;;;6.97;3.72;;;19.60;99.90;;;;;;6015221;22;45379;-55
2023/09/29 05:22:10;;;;;;;6.65;3.55;;;19.60;99.90;;;;;;6024613;22;46148;-55
2023/09/29 05:24:39;;;;;;;9.00;3.88;;;19.70;99.90;;;;;;6075360;22;44512;-55
2023/09/29 05:27:08;;;;;;;10.95;3.63;;;19.50;99.90;;;;;;6064725;22;44740;-55
2023/09/29 05:29:48;;;;;;;4.35;2.88;;;19.70;99.90;;;;;;6011701;22;44941;-55
2023/09/29 05:32:15;;;;;;;5.50;3.28;;;19.80;99.90;;;;;;6011820;22;45790;-55
2023/09/29 05:34:45;;;;;;;5.00;2.30;;;20.20;99.90;;;;;;6008075;22;44715;-55
2023/09/29 05:37:22;;;;;;;5.82;3.03;;;20.20;99.90;;;;;;6009497;22;45271;-55
2023/09/29 05:40:02;;;;;;;5.55;2.78;;;20.10;99.90;;;;;;6025450;22;45295;-55
2023/09/29 05:42:39;;;;;;;4.90;2.60;;;20.20;99.90;;;;;;6055474;22;46782;-55
2023/09/29 05:45:23;;;;;;;6.75;2.80;;;20.40;99.90;;;;;;6029193;22;45227;-55
2023/09/29 05:47:53;;;;;;;4.63;2.50;;;20.40;99.90;;;;;;6063591;22;44892;-55
2023/09/29 05:50:21;;;;;;;3.45;2.42;;;20.70;99.90;;;;;;6011065;22;44940;-55
2023/09/29 05:52:57;;;;;;;4.63;2.47;;;20.80;99.90;;;;;;6003481;22;46045;-55
2023/09/29 05:55:24;;;;;;;4.70;2.40;;;20.80;99.90;;;;;;6004091;22;45027;-55
2023/09/29 05:57:53;;;;;;;3.35;2.20;;;20.80;99.90;;;;;;6032905;22;44865;-55
2023/09/29 06:00:48;;;;;;;4.72;2.25;;;20.80;99.90;;;;;;6080905;22;44742;-55
2023/09/29 06:03:16;;;;;;;4.72;2.47;;;20.90;99.90;;;;;;6012799;22;46926;-55
2023/09/29 06:05:43;;;;;;;5.20;2.55;;;20.90;99.90;;;;;;6004787;22;45001;-55
2023/09/29 06:08:19;;;;;;;6.97;2.83;;;20.90;99.90;;;;;;6054277;22;44826;-55
2023/09/29 06:10:45;;;;;;;4.20;2.40;;;20.80;99.90;;;;;;6013828;22;44823;-55
2023/09/29 06:13:12;;;;;;;9.15;2.55;;;21.20;99.90;;;;;;5996649;22;46138;-55
2023/09/29 06:15:39;;;;;;;3.75;2.50;;;21.40;99.90;;;;;;6016726;22;44623;-55
2023/09/29 06:18:08;;;;;;;4.50;2.50;;;21.40;99.90;;;;;;6035666;22;44884;-55
2023/09/29 06:20:34;;;;;;;3.95;2.08;;;21.40;99.90;;;;;;6001906;22;44589;-55
2023/09/29 06:23:01;;;;;;;6.72;3.47;;;21.60;99.90;;;;;;5971814;22;45844;-55
2023/09/29 06:25:30;;;;;;;12.38;3.40;;;21.30;99.90;;;;;;6016689;22;44726;-54
2023/09/29 06:28:14;;;;;;;5.50;2.10;;;20.80;99.90;;;;;;6045411;22;44752;-55
2023/09/29 06:30:42;;;;;;;6.03;3.05;;;21.20;99.90;;;;;;6005712;22;45012;-55
2023/09/29 06:33:08;;;;;;;8.02;3.72;;;21.00;99.90;;;;;;5987949;22;46400;-55
2023/09/29 06:35:48;;;;;;;10.40;3.92;;;20.60;99.90;;;;;;6015026;22;44661;-55
2023/09/29 06:38:32;;;;;;;10.63;3.67;;;20.50;99.90;;;;;;6045347;22;44880;-55
2023/09/29 06:41:06;;;;;;;10.23;3.97;;;20.20;99.90;;;;;;6014048;22;44740;-55
2023/09/29 06:43:33;;;;;;;11.95;4.10;;;20.40;99.90;;;;;;5999260;22;46536;-54
2023/09/29 06:46:02;;;;;;;11.77;4.55;;;20.30;99.90;;;;;;6068831;22;44720;-55
2023/09/29 06:48:33;;;;;;;6.97;3.60;;;20.40;99.90;;;;;;6065136;22;44805;-54
2023/09/29 06:51:00;;;;;;;7.65;3.22;;;20.60;99.90;;;;;;6003580;22;44744;-55
2023/09/29 06:53:41;;;;;;;6.82;3.55;;;20.70;99.90;;;;;;6031508;22;45884;-55
2023/09/29 06:59:54;;;;;;;3.90;2.50;;;21.00;99.90;;;;;;5996252;22;45157;-54
2023/09/29 07:02:25;;;;;;;5.47;2.75;;;21.00;99.90;;;;;;6040743;22;44886;-55
2023/09/29 07:08:04;;;;;;;5.75;2.35;;;21.30;99.90;;;;;;6051878;22;45221;-55
2023/09/29 07:10:33;;;;;;;7.07;3.03;;;21.50;99.90;;;;;;6066767;22;45195;-55
2023/09/29 07:13:00;;;;;;;5.85;2.70;;;21.40;99.90;;;;;;6004121;22;45414;-55
2023/09/29 07:15:39;;;;;;;8.70;3.05;;;21.30;99.90;;;;;;6046482;22;45018;-55
2023/09/29 07:18:17;;;;;;;8.48;4.28;;;20.90;99.90;;;;;;6039457;22;44713;-55
2023/09/29 07:20:50;;;;;;;10.75;3.20;;;20.80;99.90;;;;;;6070988;22;44810;-55
2023/09/29 07:23:18;;;;;;;4.53;2.17;;;20.40;99.90;;;;;;6034344;22;44611;-55
2023/09/29 07:25:48;;;;;;;4.60;2.22;;;20.90;99.90;;;;;;6039355;22;45435;-54
2023/09/29 07:28:29;;;;;;;4.85;2.30;;;21.00;99.90;;;;;;6059699;22;44616;-55
2023/09/29 07:30:59;;;;;;;4.05;2.30;;;21.10;99.90;;;;;;6026210;22;44745;-55
2023/09/29 07:33:27;;;;;;;3.55;2.17;;;21.20;99.90;;;;;;5998115;22;44771;-55
2023/09/29 07:35:54;;;;;;;4.22;2.25;;;21.40;99.90;;;;;;5984476;22;45999;-55
2023/09/29 07:38:22;;;;;;;3.72;2.05;;;21.50;99.90;;;;;;6034696;22;44777;-55
2023/09/29 07:41:05;;;;;;;6.45;2.72;;;21.60;99.90;;;;;;6004965;22;44967;-55
2023/09/29 07:43:34;;;;;;;6.75;2.10;;;21.50;99.90;;;;;;6021011;22;45073;-54
2023/09/29 07:46:06;;;;;;;2.92;1.88;;;21.40;99.90;;;;;;6035211;22;45830;-55
2023/09/29 07:48:33;;;;;;;5.68;2.35;;;21.60;99.90;;;;;;6017941;22;44906;-55
2023/09/29 07:51:01;;;;;;;4.55;2.20;;;21.70;99.90;;;;;;6020385;22;44801;-55
2023/09/29 07:53:46;;;;;;;3.88;2.30;;;21.80;99.90;;;;;;6017518;22;44868;-55
2023/09/29 07:56:25;;;;;;;3.67;1.85;;;21.70;99.90;;;;;;6009144;22;45769;-55
2023/09/29 07:58:54;;;;;;;5.55;2.40;;;21.60;99.90;;;;;;5963069;22;44830;-55
2023/09/29 08:01:52;;;;;;;3.85;2.00;;;21.70;99.90;;;;;;5963859;22;44870;-55
2023/09/29 08:04:31;;;;;;;3.55;2.00;;;21.60;99.90;;;;;;6014406;22;44924;-54
2023/09/29 08:07:26;;;;;;;4.88;1.70;;;21.60;99.60;;;;;;6000153;22;45581;-55
2023/09/29 08:09:53;;;;;;;3.45;1.80;;;21.70;99.40;;;;;;5981064;22;44855;-55
2023/09/29 08:12:32;;;;;;;3.55;1.98;;;21.60;99.20;;;;;;5998753;22;44804;-55
2023/09/29 08:15:05;;;;;;;4.05;2.30;;;21.60;98.80;;;;;;5980931;22;44884;-54
2023/09/29 08:17:43;;;;;;;3.13;1.95;;;21.60;98.50;;;;;;5985439;22;45985;-54
2023/09/29 08:20:12;;;;;;;2.58;1.70;;;21.60;98.70;;;;;;6014951;22;45101;-55
2023/09/29 08:22:40;;;;;;;5.97;2.15;;;21.50;99.10;;;;;;5994513;22;44713;-55
2023/09/29 08:25:08;;;;;;;2.78;1.75;;;21.60;98.90;;;;;;5997736;22;44732;-55
2023/09/29 08:27:36;;;;;;;4.97;1.80;;;21.70;99.60;;;;;;6006090;22;45509;-55
2023/09/29 08:30:23;;;;;;;4.35;1.80;;;21.70;99.80;;;;;;5997633;22;44796;-55
2023/09/29 08:33:14;;;;;;;6.70;1.67;;;21.70;99.90;;;;;;5991266;22;44633;-55
2023/09/29 08:35:56;;;;;;;4.50;1.75;;;21.80;99.90;;;;;;5991199;22;44994;-55
2023/09/29 08:38:25;;;;;;;6.10;2.00;;;21.80;99.90;;;;;;6024155;22;46281;-55
2023/09/29 08:41:15;;;;;;;7.60;2.08;;;21.70;99.90;;;;;;6006645;22;44846;-55
2023/09/29 08:43:44;;;;;;;3.85;2.00;;;21.60;99.90;;;;;;6021601;22;44731;-55
2023/09/29 08:46:15;;;;;;;6.22;2.25;;;21.40;99.90;;;;;;5993841;22;44998;-55
2023/09/29 08:49:09;;;;;;;6.93;2.00;;;21.30;99.90;;;;;;6054856;22;45169;-55
2023/09/29 08:51:38;;;;;;;5.88;2.20;;;21.20;99.90;;;;;;5977809;22;44918;-55
2023/09/29 08:54:09;;;;;;;3.55;1.92;;;21.30;99.90;;;;;;5995799;22;45044;-54
2023/09/29 08:56:37;;;;;;;16.17;3.13;;;21.50;99.90;;;;;;5959906;22;44835;-56
2023/09/29 08:59:15;;;;;;;16.98;2.60;;;21.60;99.90;;;;;;5998619;22;45857;-56
2023/09/29 09:01:42;;;;;;;6.30;1.83;;;21.70;99.90;;;;;;5964701;22;44907;-56
2023/09/29 09:04:20;;;;;;;5.75;1.98;;;21.70;99.90;;;;;;5961553;22;44795;-56
2023/09/29 09:06:47;;;;;;;6.28;2.10;;;21.70;99.90;;;;;;5960611;22;44965;-56
2023/09/29 09:09:35;;;;;;;10.82;1.92;;;21.70;99.90;;;;;;5974587;22;46350;-56
2023/09/29 09:12:02;;;;;;;5.47;2.30;;;21.60;99.90;;;;;;5981057;22;44776;-56
2023/09/29 09:14:53;;;;;;;5.80;2.20;;;21.70;99.90;;;;;;5992344;22;44762;-56
2023/09/29 09:17:32;;;;;;;5.97;1.67;;;21.70;99.90;;;;;;6021845;22;44878;-56
2023/09/29 09:20:01;;;;;;;9.85;2.15;;;21.60;99.90;;;;;;5980424;22;46129;-56
2023/09/29 09:22:58;;;;;;;6.53;2.17;;;21.60;99.90;;;;;;5983301;22;45397;-56
2023/09/29 09:25:53;;;;;;;9.68;2.08;;;21.60;99.90;;;;;;5993734;22;44862;-56
2023/09/29 09:28:22;;;;;;;11.40;2.03;;;21.50;99.90;;;;;;5962487;22;44964;-56
2023/09/29 09:31:25;;;;;;;8.77;1.88;;;21.50;99.90;;;;;;6007082;22;45410;-57
2023/09/29 09:34:31;;;;;;;6.03;1.77;;;21.40;99.90;;;;;;5986132;22;45341;-57
2023/09/29 09:37:31;;;;;;;7.43;1.80;;;21.40;99.90;;;;;;6054925;22;44826;-57
2023/09/29 09:40:01;;;;;;;10.85;2.50;;;21.40;99.90;;;;;;6062093;22;44922;-56
2023/09/29 09:42:28;;;;;;;12.13;2.38;;;21.30;99.90;;;;;;6022163;22;45664;-57
2023/09/29 09:44:57;;;;;;;10.70;2.22;;;21.30;99.90;;;;;;5966172;22;44837;-57
2023/09/29 09:47:26;;;;;;;22.45;3.00;;;21.30;99.90;;;;;;5979381;22;45049;-57
2023/09/29 09:50:09;;;;;;;15.02;2.08;;;21.40;99.90;;;;;;5982805;22;45007;-57
2023/09/29 09:52:44;;;;;;;7.32;2.00;;;21.30;99.90;;;;;;6000986;22;46216;-57
2023/09/29 09:55:34;;;;;;;4.93;1.58;;;21.30;99.90;;;;;;6029512;22;44839;-57
2023/09/29 09:58:06;;;;;;;7.82;2.20;;;21.30;99.90;;;;;;5996832;22;45275;-57
2023/09/29 10:00:35;;;;;;;8.65;1.77;;;21.30;99.90;;;;;;6001924;22;44889;-56
2023/09/29 10:06:25;;;;;;;5.28;1.90;;;21.40;99.90;;;;;;5958197;22;45133;-57
2023/09/29 10:09:16;;;;;;;6.38;2.17;;;21.40;99.90;;;;;;5991391;22;45094;-56
2023/09/29 10:12:10;;;;;;;13.07;3.42;;;21.40;99.90;;;;;;6027141;22;44904;-57
2023/09/29 10:14:42;;;;;;;8.38;2.90;;;21.50;99.90;;;;;;6014536;22;46167;-56
2023/09/29 10:17:22;;;;;;;11.07;2.85;;;21.50;99.60;;;;;;6043621;22;44639;-56
2023/09/29 10:19:53;;;;;;;9.68;2.75;;;21.50;99.80;;;;;;6028619;22;44640;-56
2023/09/29 10:22:29;;;;;;;10.95;2.65;;;21.50;99.90;;;;;;5979668;22;45013;-56
2023/09/29 10:25:10;;;;;;;7.88;3.05;;;21.50;99.90;;;;;;6004266;22;45976;-56
2023/09/29 10:28:06;;;;;;;8.05;3.35;;;21.40;98.50;;;;;;6017358;22;44684;-56
2023/09/29 10:30:34;;;;;;;6.28;2.92;;;21.40;99.70;;;;;;6019210;22;44889;-56
2023/09/29 10:33:07;;;;;;;8.80;3.10;;;21.30;99.90;;;;;;6016408;22;44857;-57
2023/09/29 10:35:36;;;;;;;7.60;3.03;;;21.30;99.90;;;;;;5980511;22;46938;-57
2023/09/29 10:41:23;;;;;;;8.85;3.78;;;21.40;99.90;;;;;;6031131;22;44748;-56
2023/09/29 10:43:59;;;;;;;7.97;3.55;;;21.40;99.40;;;;;;6034386;22;44789;-57
2023/09/29 10:46:29;;;;;;;10.48;4.30;;;21.40;99.90;;;;;;5992944;22;45994;-57
2023/09/29 10:48:55;;;;;;;11.82;3.88;;;21.40;99.90;;;;;;6018320;22;44615;-56
2023/09/29 10:51:25;;;;;;;13.88;4.10;;;21.40;99.90;;;;;;6041573;22;44766;-57
2023/09/29 10:53:53;;;;;;;10.68;4.10;;;21.40;99.90;;;;;;6002608;22;44808;-56
2023/09/29 10:56:47;;;;;;;12.10;3.55;;;21.40;99.40;;;;;;6039937;22;46501;-56
2023/09/29 10:59:32;;;;;;;10.25;4.18;;;21.50;99.70;;;;;;6013854;22;44670;-56
2023/09/29 11:02:00;;;;;;;13.40;3.63;;;21.50;98.80;;;;;;5967503;22;44831;-56
2023/09/29 11:04:30;;;;;;;12.40;4.57;;;21.50;99.80;;;;;;6030454;22;44792;-56
2023/09/29 11:07:00;;;;;;;14.88;4.53;;;21.40;99.90;;;;;;6033554;22;46046;-56
2023/09/29 11:09:32;;;;;;;16.35;4.85;;;21.50;98.80;;;;;;6025927;22;44678;-56
2023/09/29 11:12:01;;;;;;;12.45;4.30;;;21.50;98.70;;;;;;6034180;22;44875;-57
2023/09/29 11:14:38;;;;;;;11.20;4.57;;;21.60;99.60;;;;;;6069505;22;45199;-56
2023/09/29 11:17:07;;;;;;;14.43;4.35;;;21.60;99.90;;;;;;6043260;22;46350;-57
2023/09/29 11:19:36;;;;;;;20.02;4.40;;;21.60;99.90;;;;;;6047471;22;44791;-56
2023/09/29 11:22:05;;;;;;;20.15;4.72;;;21.60;99.90;;;;;;6008744;22;45072;-56
2023/09/29 11:25:00;;;;;;;8.75;3.15;;;21.50;99.90;;;;;;6052032;22;44947;-56
2023/09/29 11:27:49;;;;;;;22.02;4.47;;;21.60;99.90;;;;;;6027042;22;45206;-58
2023/09/29 11:30:24;;;;;;;13.60;4.57;;;21.60;99.70;;;;;;6034017;22;44836;-56
2023/09/29 11:33:00;;;;;;;12.32;3.90;;;21.70;99.30;;;;;;6050219;22;44986;-56
2023/09/29 11:35:30;;;;;;;9.75;3.72;;;21.80;99.40;;;;;;5987109;22;45090;-58
2023/09/29 11:38:19;;;;;;;11.07;3.47;;;21.80;99.10;;;;;;6008996;22;46379;-58
2023/09/29 11:40:47;;;;;;;13.27;4.00;;;21.80;99.70;;;;;;5966997;22;44754;-57
2023/09/29 11:43:15;;;;;;;11.25;3.80;;;21.80;98.70;;;;;;5971461;22;44970;-57
2023/09/29 11:45:44;;;;;;;15.13;4.40;;;21.70;99.90;;;;;;6013401;22;45012;-57
2023/09/29 11:48:12;;;;;;;11.82;4.10;;;21.70;99.90;;;;;;5994471;22;46314;-57
2023/09/29 11:50:54;;;;;;;16.73;3.67;;;21.70;99.90;;;;;;5976161;22;44777;-57
2023/09/29 11:53:44;;;;;;;10.18;3.67;;;21.80;98.10;;;;;;5980807;22;44809;-57
2023/09/29 11:56:13;;;;;;;9.55;3.45;;;21.90;96.80;;;;;;5992957;22;44830;-57
2023/09/29 11:58:49;;;;;;;12.32;4.03;;;21.80;97.50;;;;;;6048881;22;46693;-57
2023/09/29 12:01:19;;;;;;;14.25;4.22;;;21.70;98.40;;;;;;6040228;22;45110;-54
2023/09/29 12:03:58;;;;;;;11.15;3.45;;;21.70;98.20;;;;;;5956894;22;44877;-57
2023/09/29 12:06:31;;;;;;;16.70;4.05;;;21.70;98.90;;;;;;6010110;22;45236;-56
2023/09/29 12:08:58;;;;;;;11.95;3.67;;;21.60;99.00;;;;;;5972563;22;46124;-56
2023/09/29 12:11:28;;;;;;;12.70;3.88;;;21.70;99.50;;;;;;6070910;22;44686;-57
2023/09/29 12:13:57;;;;;;;14.32;4.05;;;21.70;99.30;;;;;;6026920;22;45328;-57
2023/09/29 12:16:28;;;;;;;12.25;3.88;;;21.70;98.70;;;;;;6004570;22;45064;-57
2023/09/29 12:19:25;;;;;;;16.73;3.42;;;21.70;98.40;;;;;;6056252;22;46465;-57
2023/09/29 12:22:31;;;;;;;11.45;4.03;;;21.60;99.10;;;;;;6040812;22;45266;-57
2023/09/29 12:24:57;;;;;;;10.07;3.55;;;21.60;99.30;;;;;;6004096;22;44978;-57
2023/09/29 12:27:52;;;;;;;10.95;3.85;;;21.60;99.30;;;;;;6023371;22;44739;-57
2023/09/29 12:30:22;;;;;;;11.65;3.72;;;21.60;99.10;;;;;;6037549;22;46590;-57
2023/09/29 12:32:51;;;;;;;10.15;3.40;;;21.60;99.90;;;;;;6036014;22;45025;-57
2023/09/29 12:35:20;;;;;;;10.80;3.25;;;21.50;99.90;;;;;;5998118;22;45149;-57
2023/09/29 12:37:53;;;;;;;17.05;3.80;;;21.50;99.90;;;;;;6055362;22;44851;-57
2023/09/29 12:40:27;;;;;;;13.45;3.47;;;21.40;99.90;;;;;;6025383;22;45730;-57
2023/09/29 12:43:08;;;;;;;11.82;3.50;;;21.40;99.90;;;;;;6013058;22;44664;-58
2023/09/29 12:45:35;;;;;;;11.95;3.38;;;21.30;99.90;;;;;;6012211;22;44800;-57
2023/09/29 12:48:05;;;;;;;14.48;3.22;;;21.30;99.90;;;;;;6042314;22;44757;-57
2023/09/29 12:50:43;;;;;;;11.00;3.33;;;21.30;99.90;;;;;;6009114;22;45254;-57
2023/09/29 12:53:10;;;;;;;10.45;2.92;;;21.20;99.90;;;;;;5995663;22;44831;-57
2023/09/29 12:55:39;;;;;;;9.77;2.70;;;21.20;99.90;;;;;;6002632;22;45252;-57
2023/09/29 12:58:22;;;;;;;12.93;2.75;;;21.00;99.90;;;;;;6028029;22;44806;-57
2023/09/29 13:01:06;;;;;;;14.75;3.30;;;20.90;99.90;;;;;;6005475;22;45404;-57
2023/09/29 13:03:53;;;;;;;8.43;2.83;;;20.40;99.90;;;;;;6010683;22;45005;-57
2023/09/29 13:06:21;;;;;;;8.77;2.38;;;19.80;99.90;;;;;;5997801;22;44780;-56
2023/09/29 13:08:48;;;;;;;6.45;2.40;;;19.60;99.90;;;;;;6013375;22;44863;-56
2023/09/29 13:11:18;;;;;;;7.05;2.33;;;19.70;99.90;;;;;;6025872;22;46377;-57
2023/09/29 13:13:47;;;;;;;9.25;2.85;;;19.70;99.90;;;;;;6048729;22;44659;-56
2023/09/29 13:16:16;;;;;;;10.57;2.67;;;19.80;99.90;;;;;;6017375;22;44727;-56
2023/09/29 13:18:54;;;;;;;8.13;2.22;;;19.80;99.90;;;;;;6006213;22;44766;-57
2023/09/29 13:21:21;;;;;;;6.68;2.17;;;20.00;99.90;;;;;;5999339;22;45874;-57
2023/09/29 13:23:52;;;;;;;9.18;2.60;;;20.00;99.90;;;;;;6009867;22;44903;-57
2023/09/29 13:26:19;;;;;;;6.60;2.33;;;20.00;99.90;;;;;;6016681;22;44731;-57
2023/09/29 13:28:47;;;;;;;9.38;2.78;;;20.10;99.90;;;;;;6001173;22;44776;-57
2023/09/29 13:31:14;;;;;;;10.10;2.38;;;20.30;99.90;;;;;;6030723;22;45896;-57
2023/09/29 13:33:46;;;;;;;6.28;2.42;;;20.40;99.90;;;;;;5976960;22;44643;-57
2023/09/29 13:36:17;;;;;;;9.43;2.90;;;20.40;99.90;;;;;;6019979;22;45134;-57
2023/09/29 13:38:46;;;;;;;5.97;2.65;;;20.40;99.90;;;;;;5966044;22;44845;-57
2023/09/29 13:41:54;;;;;;;7.03;2.28;;;20.30;99.90;;;;;;6039907;22;46274;-57
2023/09/29 13:44:41;;;;;;;5.50;2.45;;;20.30;99.90;;;;;;6001330;22;44920;-57
2023/09/29 13:47:08;;;;;;;3.92;1.80;;;20.20;99.90;;;;;;5975750;22;44935;-57
2023/09/29 13:49:55;;;;;;;4.95;2.03;;;20.30;99.90;;;;;;6033872;22;44626;-57
2023/09/29 13:52:22;;;;;;;4.90;2.17;;;20.50;99.90;;;;;;5984572;22;45401;-57